sensor_id;sensor_type;location;lat;lon;timestamp;pressure;altitude;pressure_sealevel;temperature;humidity
60087;BME280;45960;53.630;55.972;2023-06-22T00:00:35;99648.19;;;9.57;56.49
60087;BME280;45960;53.630;55.972;2023-06-22T00:01:36;99655.34;;;9.57;56.48
60087;BME280;45960;53.630;55.972;2023-06-22T00:02:37;99654.50;;;9.56;56.51
60087;BME280;45960;53.630;55.972;2023-06-22T00:03:38;99652.81;;;9.55;56.36
60087;BME280;45960;53.630;55.972;2023-06-22T00:04:39;99655.47;;;9.55;56.42
60087;BME280;45960;53.630;55.972;2023-06-22T00:05:41;99659.84;;;9.56;56.60
60087;BME280;45960;53.630;55.972;2023-06-22T00:06:42;99658.16;;;9.55;56.35
60087;BME280;45960;53.630;55.972;2023-06-22T00:07:43;99653.75;;;9.54;56.63
60087;BME280;45960;53.630;55.972;2023-06-22T00:08:44;99662.72;;;9.53;56.82
60087;BME280;45960;53.630;55.972;2023-06-22T00:09:45;99658.16;;;9.55;56.64
60087;BME280;45960;53.630;55.972;2023-06-22T00:10:46;99647.38;;;9.44;56.49
60087;BME280;45960;53.630;55.972;2023-06-22T00:11:47;99661.75;;;9.54;56.70
60087;BME280;45960;53.630;55.972;2023-06-22T00:12:48;99669.75;;;9.54;56.71
60087;BME280;45960;53.630;55.972;2023-06-22T00:13:49;99671.56;;;9.54;56.75
60087;BME280;45960;53.630;55.972;2023-06-22T00:14:51;99672.41;;;9.54;56.69
60087;BME280;45960;53.630;55.972;2023-06-22T00:15:52;99676.06;;;9.53;56.82
60087;BME280;45960;53.630;55.972;2023-06-22T00:16:53;99670.72;;;9.53;56.76
60087;BME280;45960;53.630;55.972;2023-06-22T00:17:56;99667.31;;;9.51;56.78
60087;BME280;45960;53.630;55.972;2023-06-22T00:18:58;99669.03;;;9.52;56.91
60087;BME280;45960;53.630;55.972;2023-06-22T00:20:01;99665.41;;;9.53;56.99
60087;BME280;45960;53.630;55.972;2023-06-22T00:21:05;99675.94;;;9.55;57.14
60087;BME280;45960;53.630;55.972;2023-06-22T00:22:07;99672.41;;;9.54;57.06
60087;BME280;45960;53.630;55.972;2023-06-22T00:23:08;99675.09;;;9.54;57.25
60087;BME280;45960;53.630;55.972;2023-06-22T00:24:09;99674.16;;;9.55;57.31
60087;BME280;45960;53.630;55.972;2023-06-22T00:25:11;99670.50;;;9.56;57.31
60087;BME280;45960;53.630;55.972;2023-06-22T00:26:13;99671.34;;;9.57;57.27
60087;BME280;45960;53.630;55.972;2023-06-22T00:27:14;99672.19;;;9.57;57.30
60087;BME280;45960;53.630;55.972;2023-06-22T00:28:15;99673.94;;;9.58;57.05
60087;BME280;45960;53.630;55.972;2023-06-22T00:29:16;99674.78;;;9.59;57.14
60087;BME280;45960;53.630;55.972;2023-06-22T00:30:19;99667.75;;;9.58;57.11
60087;BME280;45960;53.630;55.972;2023-06-22T00:31:20;99674.78;;;9.59;57.28
60087;BME280;45960;53.630;55.972;2023-06-22T00:32:21;99666.66;;;9.60;57.20
60087;BME280;45960;53.630;55.972;2023-06-22T00:33:22;99678.19;;;9.61;57.30
60087;BME280;45960;53.630;55.972;2023-06-22T00:34:23;99673.72;;;9.61;57.19
60087;BME280;45960;53.630;55.972;2023-06-22T00:35:25;99671.78;;;9.63;57.08
60087;BME280;45960;53.630;55.972;2023-06-22T00:36:29;99678.81;;;9.64;57.16
60087;BME280;45960;53.630;55.972;2023-06-22T00:37:31;99666.47;;;9.63;56.92
60087;BME280;45960;53.630;55.972;2023-06-22T00:38:34;99673.25;;;9.68;57.02
60087;BME280;45960;53.630;55.972;2023-06-22T00:39:36;99670.69;;;9.66;56.95
60087;BME280;45960;53.630;55.972;2023-06-22T00:40:37;99672.41;;;9.67;57.03
60087;BME280;45960;53.630;55.972;2023-06-22T00:41:38;99672.28;;;9.69;57.07
60087;BME280;45960;53.630;55.972;2023-06-22T00:42:39;99673.25;;;9.68;57.15
60087;BME280;45960;53.630;55.972;2023-06-22T00:43:42;99676.69;;;9.70;57.16
60087;BME280;45960;53.630;55.972;2023-06-22T00:44:43;99672.19;;;9.70;57.20
60087;BME280;45960;53.630;55.972;2023-06-22T00:45:45;99659.41;;;9.62;56.96
60087;BME280;45960;53.630;55.972;2023-06-22T00:46:47;99671.13;;;9.73;57.31
60087;BME280;45960;53.630;55.972;2023-06-22T00:47:51;99671.13;;;9.73;57.21
60087;BME280;45960;53.630;55.972;2023-06-22T00:48:53;99632.13;;;9.46;57.51
60087;BME280;45960;53.630;55.972;2023-06-22T00:49:58;99676.25;;;9.76;57.61
60087;BME280;45960;53.630;55.972;2023-06-22T00:51:01;99672.59;;;9.77;58.02
60087;BME280;45960;53.630;55.972;2023-06-22T00:52:03;99673.34;;;9.79;57.88
60087;BME280;45960;53.630;55.972;2023-06-22T00:53:08;99678.69;;;9.79;58.15
60087;BME280;45960;53.630;55.972;2023-06-22T00:54:09;99674.09;;;9.81;58.17
60087;BME280;45960;53.630;55.972;2023-06-22T00:55:12;99670.47;;;9.82;58.25
60087;BME280;45960;53.630;55.972;2023-06-22T00:56:15;99676.53;;;9.84;58.33
60087;BME280;45960;53.630;55.972;2023-06-22T00:57:20;99673.88;;;9.84;58.20
60087;BME280;45960;53.630;55.972;2023-06-22T00:58:23;99678.03;;;9.88;58.27
60087;BME280;45960;53.630;55.972;2023-06-22T00:59:26;99677.06;;;9.89;58.22
60087;BME280;45960;53.630;55.972;2023-06-22T01:00:27;99684.94;;;9.91;57.99
60087;BME280;45960;53.630;55.972;2023-06-22T01:01:29;99683.88;;;9.93;58.21
60087;BME280;45960;53.630;55.972;2023-06-22T01:02:31;99689.97;;;9.95;57.91
60087;BME280;45960;53.630;55.972;2023-06-22T01:03:32;99689.00;;;9.96;58.09
60087;BME280;45960;53.630;55.972;2023-06-22T01:04:35;99691.56;;;9.98;57.88
60087;BME280;45960;53.630;55.972;2023-06-22T01:05:38;99688.78;;;9.99;57.75
60087;BME280;45960;53.630;55.972;2023-06-22T01:07:48;99692.19;;;10.01;58.11
60087;BME280;45960;53.630;55.972;2023-06-22T01:08:27;99684.09;;;10.03;57.94
60087;BME280;45960;53.630;55.972;2023-06-22T01:09:32;99688.53;;;10.02;57.98
60087;BME280;45960;53.630;55.972;2023-06-22T01:11:56;99695.38;;;10.06;58.07
60087;BME280;45960;53.630;55.972;2023-06-22T01:13:02;99698.81;;;10.08;57.98
60087;BME280;45960;53.630;55.972;2023-06-22T01:14:31;99696.84;;;10.11;57.89
60087;BME280;45960;53.630;55.972;2023-06-22T01:15:42;99701.25;;;10.12;57.88
60087;BME280;45960;53.630;55.972;2023-06-22T01:16:48;99694.94;;;10.13;57.75
60087;BME280;45960;53.630;55.972;2023-06-22T01:17:52;99679.59;;;10.03;57.82
60087;BME280;45960;53.630;55.972;2023-06-22T01:18:55;99694.47;;;10.19;57.92
60087;BME280;45960;53.630;55.972;2023-06-22T01:20:00;99706.00;;;10.19;57.70
60087;BME280;45960;53.630;55.972;2023-06-22T01:21:01;99695.13;;;10.22;57.60
60087;BME280;45960;53.630;55.972;2023-06-22T01:22:05;99699.50;;;10.23;57.67
60087;BME280;45960;53.630;55.972;2023-06-22T01:23:17;99701.09;;;10.26;57.58
60087;BME280;45960;53.630;55.972;2023-06-22T01:24:30;99699.19;;;10.28;57.67
60087;BME280;45960;53.630;55.972;2023-06-22T01:25:46;99698.09;;;10.30;57.50
60087;BME280;45960;53.630;55.972;2023-06-22T01:26:58;99705.03;;;10.33;57.75
60087;BME280;45960;53.630;55.972;2023-06-22T01:29:18;99707.47;;;10.36;57.53
60087;BME280;45960;53.630;55.972;2023-06-22T01:30:24;99703.84;;;10.37;57.53
60087;BME280;45960;53.630;55.972;2023-06-22T01:31:28;99702.78;;;10.40;57.42
60087;BME280;45960;53.630;55.972;2023-06-22T01:32:32;99700.81;;;10.42;57.07
60087;BME280;45960;53.630;55.972;2023-06-22T01:33:40;99703.41;;;10.43;57.15
60087;BME280;45960;53.630;55.972;2023-06-22T01:34:42;99708.50;;;10.46;57.13
60087;BME280;45960;53.630;55.972;2023-06-22T01:35:44;99708.50;;;10.46;57.05
60087;BME280;45960;53.630;55.972;2023-06-22T01:36:46;99713.63;;;10.49;56.97
60087;BME280;45960;53.630;55.972;2023-06-22T01:37:48;99712.69;;;10.50;56.98
60087;BME280;45960;53.630;55.972;2023-06-22T01:38:50;99715.13;;;10.53;56.59
60087;BME280;45960;53.630;55.972;2023-06-22T01:39:54;99719.25;;;10.58;56.73
60087;BME280;45960;53.630;55.972;2023-06-22T01:41:00;99720.00;;;10.60;56.90
60087;BME280;45960;53.630;55.972;2023-06-22T01:42:03;99717.09;;;10.63;56.93
60087;BME280;45960;53.630;55.972;2023-06-22T01:43:06;99712.50;;;10.65;56.92
60087;BME280;45960;53.630;55.972;2023-06-22T01:44:10;99710.53;;;10.67;56.99
60087;BME280;45960;53.630;55.972;2023-06-22T01:45:13;99703.97;;;10.60;56.60
60087;BME280;45960;53.630;55.972;2023-06-22T01:46:15;99721.88;;;10.70;56.65
60087;BME280;45960;53.630;55.972;2023-06-22T01:47:21;99718.13;;;10.73;56.42
60087;BME280;45960;53.630;55.972;2023-06-22T01:48:23;99710.34;;;10.70;56.44
60087;BME280;45960;53.630;55.972;2023-06-22T01:49:27;99711.56;;;10.77;56.43
60087;BME280;45960;53.630;55.972;2023-06-22T01:50:29;99709.66;;;10.79;56.30
60087;BME280;45960;53.630;55.972;2023-06-22T01:51:30;99714.75;;;10.82;56.28
60087;BME280;45960;53.630;55.972;2023-06-22T01:52:35;99697.69;;;10.72;56.46
60087;BME280;45960;53.630;55.972;2023-06-22T01:53:36;99723.53;;;10.84;56.41
60087;BME280;45960;53.630;55.972;2023-06-22T01:54:39;99728.63;;;10.87;56.41
60087;BME280;45960;53.630;55.972;2023-06-22T01:55:40;99724.41;;;10.96;55.93
60087;BME280;45960;53.630;55.972;2023-06-22T01:56:41;99733.66;;;11.03;55.86
60087;BME280;45960;53.630;55.972;2023-06-22T01:57:43;99736.50;;;11.13;55.80
60087;BME280;45960;53.630;55.972;2023-06-22T02:00:18;99733.75;;;11.48;55.01
60087;BME280;45960;53.630;55.972;2023-06-22T02:01:26;99729.78;;;11.65;54.50
60087;BME280;45960;53.630;55.972;2023-06-22T02:02:36;99731.16;;;11.82;54.04
60087;BME280;45960;53.630;55.972;2023-06-22T02:03:43;99729.09;;;11.97;53.71
60087;BME280;45960;53.630;55.972;2023-06-22T02:04:52;99735.19;;;12.10;53.30
60087;BME280;45960;53.630;55.972;2023-06-22T02:06:01;99733.94;;;12.25;52.91
60087;BME280;45960;53.630;55.972;2023-06-22T02:07:07;99731.22;;;12.37;52.93
60087;BME280;45960;53.630;55.972;2023-06-22T02:08:15;99744.59;;;12.48;52.66
60087;BME280;45960;53.630;55.972;2023-06-22T02:09:20;99737.63;;;12.57;52.45
60087;BME280;45960;53.630;55.972;2023-06-22T02:10:23;99750.66;;;12.61;52.27
60087;BME280;45960;53.630;55.972;2023-06-22T02:11:26;99727.50;;;12.60;52.26
60087;BME280;45960;53.630;55.972;2023-06-22T02:12:31;99742.34;;;12.75;52.08
60087;BME280;45960;53.630;55.972;2023-06-22T02:13:35;99740.13;;;12.81;51.79
60087;BME280;45960;53.630;55.972;2023-06-22T02:14:37;99736.19;;;12.85;51.54
60087;BME280;45960;53.630;55.972;2023-06-22T02:15:39;99748.66;;;12.86;51.65
60087;BME280;45960;53.630;55.972;2023-06-22T02:16:40;99728.56;;;12.80;51.57
60087;BME280;45960;53.630;55.972;2023-06-22T02:17:43;99745.91;;;12.97;51.51
60087;BME280;45960;53.630;55.972;2023-06-22T02:18:50;99747.22;;;13.03;51.47
60087;BME280;45960;53.630;55.972;2023-06-22T02:19:52;99746.81;;;13.07;51.13
60087;BME280;45960;53.630;55.972;2023-06-22T02:20:53;99744.88;;;13.09;50.92
60087;BME280;45960;53.630;55.972;2023-06-22T02:21:54;99740.34;;;13.10;50.77
60087;BME280;45960;53.630;55.972;2023-06-22T02:22:55;99750.56;;;13.16;50.61
60087;BME280;45960;53.630;55.972;2023-06-22T02:23:56;99747.50;;;13.20;50.88
60087;BME280;45960;53.630;55.972;2023-06-22T02:24:57;99738.97;;;13.27;50.78
60087;BME280;45960;53.630;55.972;2023-06-22T02:26:00;99744.78;;;13.32;50.56
60087;BME280;45960;53.630;55.972;2023-06-22T02:27:02;99740.00;;;13.35;50.64
60087;BME280;45960;53.630;55.972;2023-06-22T02:28:06;99740.63;;;13.39;50.58
60087;BME280;45960;53.630;55.972;2023-06-22T02:29:08;99740.34;;;13.42;50.64
60087;BME280;45960;53.630;55.972;2023-06-22T02:30:10;99738.34;;;13.44;50.26
60087;BME280;45960;53.630;55.972;2023-06-22T02:31:14;99730.31;;;13.44;50.26
60087;BME280;45960;53.630;55.972;2023-06-22T02:32:15;99742.50;;;13.48;50.28
60087;BME280;45960;53.630;55.972;2023-06-22T02:33:21;99744.66;;;13.54;50.19
60087;BME280;45960;53.630;55.972;2023-06-22T02:34:22;99747.06;;;13.57;49.99
60087;BME280;45960;53.630;55.972;2023-06-22T02:35:26;99741.88;;;13.65;49.80
60087;BME280;45960;53.630;55.972;2023-06-22T02:36:32;99735.53;;;13.66;49.90
60087;BME280;45960;53.630;55.972;2023-06-22T02:37:39;99749.59;;;13.80;49.43
60087;BME280;45960;53.630;55.972;2023-06-22T02:38:42;99748.09;;;13.87;49.25
60087;BME280;45960;53.630;55.972;2023-06-22T02:39:49;99749.50;;;13.91;49.13
60087;BME280;45960;53.630;55.972;2023-06-22T02:40:50;99749.09;;;13.96;49.03
60087;BME280;45960;53.630;55.972;2023-06-22T02:41:53;99749.69;;;13.99;49.18
60087;BME280;45960;53.630;55.972;2023-06-22T02:42:54;99746.72;;;14.02;49.22
60087;BME280;45960;53.630;55.972;2023-06-22T02:43:55;99738.38;;;14.05;49.12
60087;BME280;45960;53.630;55.972;2023-06-22T02:44:56;99747.91;;;14.09;49.13
60087;BME280;45960;53.630;55.972;2023-06-22T02:45:58;99747.47;;;14.14;49.07
60087;BME280;45960;53.630;55.972;2023-06-22T02:46:59;99739.84;;;14.09;49.21
60087;BME280;45960;53.630;55.972;2023-06-22T02:48:00;99745.94;;;14.21;49.63
60087;BME280;45960;53.630;55.972;2023-06-22T02:49:01;99754.47;;;14.26;49.97
60087;BME280;45960;53.630;55.972;2023-06-22T02:50:02;99753.78;;;14.34;50.24
60087;BME280;45960;53.630;55.972;2023-06-22T02:51:07;99754.06;;;14.41;50.27
60087;BME280;45960;53.630;55.972;2023-06-22T02:52:10;99761.19;;;14.51;50.20
60087;BME280;45960;53.630;55.972;2023-06-22T02:53:12;99765.47;;;14.64;50.03
60087;BME280;45960;53.630;55.972;2023-06-22T02:54:17;99765.22;;;14.76;49.73
60087;BME280;45960;53.630;55.972;2023-06-22T02:55:20;99765.78;;;14.90;49.70
60087;BME280;45960;53.630;55.972;2023-06-22T02:56:29;99764.09;;;14.98;49.45
60087;BME280;45960;53.630;55.972;2023-06-22T02:57:34;99766.38;;;15.13;49.11
60087;BME280;45960;53.630;55.972;2023-06-22T02:58:36;99768.91;;;15.24;48.95
60087;BME280;45960;53.630;55.972;2023-06-22T02:59:42;99770.03;;;15.31;48.72
60087;BME280;45960;53.630;55.972;2023-06-22T03:00:45;99771.16;;;15.38;48.62
60087;BME280;45960;53.630;55.972;2023-06-22T03:01:46;99770.31;;;15.48;48.41
60087;BME280;45960;53.630;55.972;2023-06-22T03:02:56;99773.41;;;15.53;48.43
60087;BME280;45960;53.630;55.972;2023-06-22T03:03:57;99774.81;;;15.57;48.19
60087;BME280;45960;53.630;55.972;2023-06-22T03:04:59;99784.31;;;15.61;48.22
60087;BME280;45960;53.630;55.972;2023-06-22T03:06:02;99785.59;;;15.66;47.90
60087;BME280;45960;53.630;55.972;2023-06-22T03:07:04;99779.09;;;15.69;47.37
60087;BME280;45960;53.630;55.972;2023-06-22T03:08:06;99780.19;;;15.76;47.13
60087;BME280;45960;53.630;55.972;2023-06-22T03:09:09;99786.00;;;15.81;46.97
60087;BME280;45960;53.630;55.972;2023-06-22T03:10:13;99783.84;;;15.85;47.01
60087;BME280;45960;53.630;55.972;2023-06-22T03:11:15;99782.41;;;15.91;46.95
60087;BME280;45960;53.630;55.972;2023-06-22T03:12:16;99780.13;;;15.96;46.98
60087;BME280;45960;53.630;55.972;2023-06-22T03:13:27;99777.00;;;16.00;46.95
60087;BME280;45960;53.630;55.972;2023-06-22T03:14:28;99779.41;;;16.03;46.63
60087;BME280;45960;53.630;55.972;2023-06-22T03:15:30;99780.97;;;16.06;46.13
60087;BME280;45960;53.630;55.972;2023-06-22T03:16:33;99783.91;;;16.13;46.26
60087;BME280;45960;53.630;55.972;2023-06-22T03:17:35;99789.56;;;16.19;46.22
60087;BME280;45960;53.630;55.972;2023-06-22T03:18:37;99784.56;;;16.24;46.29
60087;BME280;45960;53.630;55.972;2023-06-22T03:19:38;99778.03;;;16.27;46.40
60087;BME280;45960;53.630;55.972;2023-06-22T03:20:39;99787.66;;;16.29;46.57
60087;BME280;45960;53.630;55.972;2023-06-22T03:21:43;99773.88;;;16.32;46.83
60087;BME280;45960;53.630;55.972;2023-06-22T03:22:44;99787.63;;;16.39;46.56
60087;BME280;45960;53.630;55.972;2023-06-22T03:23:46;99782.78;;;16.43;46.42
60087;BME280;45960;53.630;55.972;2023-06-22T03:24:47;99779.94;;;16.44;46.21
60087;BME280;45960;53.630;55.972;2023-06-22T03:25:50;99779.88;;;16.54;46.44
60087;BME280;45960;53.630;55.972;2023-06-22T03:26:51;99785.50;;;16.61;46.55
60087;BME280;45960;53.630;55.972;2023-06-22T03:27:52;99785.78;;;16.67;46.08
60087;BME280;45960;53.630;55.972;2023-06-22T03:28:53;99785.31;;;16.72;45.89
60087;BME280;45960;53.630;55.972;2023-06-22T03:29:56;99785.59;;;16.78;45.75
60087;BME280;45960;53.630;55.972;2023-06-22T03:30:58;99789.66;;;16.83;45.65
60087;BME280;45960;53.630;55.972;2023-06-22T03:31:59;99788.78;;;16.92;45.48
60087;BME280;45960;53.630;55.972;2023-06-22T03:33:01;99789.53;;;17.02;45.39
60087;BME280;45960;53.630;55.972;2023-06-22T03:34:02;99780.38;;;17.13;45.34
60087;BME280;45960;53.630;55.972;2023-06-22T03:35:03;99783.66;;;17.25;45.13
60087;BME280;45960;53.630;55.972;2023-06-22T03:36:06;99785.59;;;17.32;44.94
60087;BME280;45960;53.630;55.972;2023-06-22T03:37:07;99782.44;;;17.37;44.66
60087;BME280;45960;53.630;55.972;2023-06-22T03:38:09;99788.19;;;17.42;44.39
60087;BME280;45960;53.630;55.972;2023-06-22T03:39:10;99790.31;;;17.48;44.07
60087;BME280;45960;53.630;55.972;2023-06-22T03:40:11;99786.97;;;17.54;43.71
60087;BME280;45960;53.630;55.972;2023-06-22T03:41:13;99788.72;;;17.63;43.45
60087;BME280;45960;53.630;55.972;2023-06-22T03:42:16;99793.16;;;17.73;43.21
60087;BME280;45960;53.630;55.972;2023-06-22T03:43:16;99784.16;;;17.82;42.87
60087;BME280;45960;53.630;55.972;2023-06-22T03:44:18;99775.41;;;17.88;42.43
60087;BME280;45960;53.630;55.972;2023-06-22T03:45:19;99782.19;;;17.92;41.82
60087;BME280;45960;53.630;55.972;2023-06-22T03:46:21;99782.81;;;17.86;41.64
60087;BME280;45960;53.630;55.972;2023-06-22T03:47:22;99775.72;;;17.85;41.68
60087;BME280;45960;53.630;55.972;2023-06-22T03:48:24;99783.72;;;17.95;41.46
60087;BME280;45960;53.630;55.972;2023-06-22T03:49:25;99780.91;;;18.04;41.10
60087;BME280;45960;53.630;55.972;2023-06-22T03:50:26;99780.97;;;18.13;40.92
60087;BME280;45960;53.630;55.972;2023-06-22T03:51:28;99777.28;;;18.22;40.40
60087;BME280;45960;53.630;55.972;2023-06-22T03:52:29;99784.59;;;18.29;40.25
60087;BME280;45960;53.630;55.972;2023-06-22T03:53:31;99785.47;;;18.38;39.94
60087;BME280;45960;53.630;55.972;2023-06-22T03:54:32;99784.34;;;18.49;39.93
60087;BME280;45960;53.630;55.972;2023-06-22T03:55:34;99778.09;;;18.56;39.83
60087;BME280;45960;53.630;55.972;2023-06-22T03:56:36;99784.59;;;18.72;39.44
60087;BME280;45960;53.630;55.972;2023-06-22T03:57:37;99785.63;;;18.79;39.03
60087;BME280;45960;53.630;55.972;2023-06-22T03:58:38;99773.63;;;18.82;38.65
60087;BME280;45960;53.630;55.972;2023-06-22T03:59:43;99785.19;;;18.92;39.05
60087;BME280;45960;53.630;55.972;2023-06-22T04:00:46;99784.50;;;18.98;38.65
60087;BME280;45960;53.630;55.972;2023-06-22T04:01:47;99788.41;;;19.04;38.36
60087;BME280;45960;53.630;55.972;2023-06-22T04:02:48;99788.75;;;19.09;38.32
60087;BME280;45960;53.630;55.972;2023-06-22T04:03:50;99788.25;;;19.13;38.35
60087;BME280;45960;53.630;55.972;2023-06-22T04:04:51;99791.63;;;19.15;38.47
60087;BME280;45960;53.630;55.972;2023-06-22T04:05:52;99792.50;;;19.16;38.36
60087;BME280;45960;53.630;55.972;2023-06-22T04:06:53;99790.78;;;19.15;38.28
60087;BME280;45960;53.630;55.972;2023-06-22T04:07:54;99795.03;;;19.17;38.45
60087;BME280;45960;53.630;55.972;2023-06-22T04:08:56;99788.44;;;19.20;38.32
60087;BME280;45960;53.630;55.972;2023-06-22T04:09:57;99791.50;;;19.25;37.96
60087;BME280;45960;53.630;55.972;2023-06-22T04:10:58;99784.38;;;19.24;37.65
60087;BME280;45960;53.630;55.972;2023-06-22T04:12:00;99788.09;;;19.39;37.64
60087;BME280;45960;53.630;55.972;2023-06-22T04:13:01;99793.19;;;19.51;37.52
60087;BME280;45960;53.630;55.972;2023-06-22T04:14:03;99784.03;;;19.60;37.53
60087;BME280;45960;53.630;55.972;2023-06-22T04:15:04;99792.53;;;19.73;37.71
60087;BME280;45960;53.630;55.972;2023-06-22T04:16:06;99799.63;;;19.82;37.80
60087;BME280;45960;53.630;55.972;2023-06-22T04:17:07;99794.53;;;19.87;37.73
60087;BME280;45960;53.630;55.972;2023-06-22T04:18:08;99796.91;;;19.90;37.58
60087;BME280;45960;53.630;55.972;2023-06-22T04:19:09;99795.91;;;19.92;37.31
60087;BME280;45960;53.630;55.972;2023-06-22T04:20:16;99796.06;;;19.90;37.00
60087;BME280;45960;53.630;55.972;2023-06-22T04:21:18;99793.53;;;19.88;36.74
60087;BME280;45960;53.630;55.972;2023-06-22T04:22:20;99797.59;;;19.84;36.70
60087;BME280;45960;53.630;55.972;2023-06-22T04:23:21;99780.16;;;19.71;36.76
60087;BME280;45960;53.630;55.972;2023-06-22T04:24:22;99796.56;;;19.77;36.94
60087;BME280;45960;53.630;55.972;2023-06-22T04:25:23;99795.25;;;19.73;37.24
60087;BME280;45960;53.630;55.972;2023-06-22T04:26:24;99790.81;;;19.64;36.99
60087;BME280;45960;53.630;55.972;2023-06-22T04:27:25;99795.59;;;19.70;37.21
60087;BME280;45960;53.630;55.972;2023-06-22T04:28:26;99802.03;;;19.69;36.80
60087;BME280;45960;53.630;55.972;2023-06-22T04:29:29;99800.31;;;19.68;36.60
60087;BME280;45960;53.630;55.972;2023-06-22T04:30:32;99801.69;;;19.72;36.58
60087;BME280;45960;53.630;55.972;2023-06-22T04:31:34;99802.00;;;19.77;37.14
60087;BME280;45960;53.630;55.972;2023-06-22T04:32:37;99807.41;;;19.85;36.86
60087;BME280;45960;53.630;55.972;2023-06-22T04:33:38;99783.34;;;19.82;36.58
60087;BME280;45960;53.630;55.972;2023-06-22T04:34:42;99806.38;;;20.03;36.48
60087;BME280;45960;53.630;55.972;2023-06-22T04:35:46;99799.91;;;20.12;36.51
60087;BME280;45960;53.630;55.972;2023-06-22T04:36:47;99803.44;;;20.21;36.31
60087;BME280;45960;53.630;55.972;2023-06-22T04:37:48;99805.31;;;20.28;35.94
60087;BME280;45960;53.630;55.972;2023-06-22T04:38:50;99806.28;;;20.35;35.53
60087;BME280;45960;53.630;55.972;2023-06-22T04:39:53;99810.31;;;20.48;35.61
60087;BME280;45960;53.630;55.972;2023-06-22T04:40:54;99811.66;;;20.60;35.17
60087;BME280;45960;53.630;55.972;2023-06-22T04:41:55;99813.28;;;20.69;35.02
60087;BME280;45960;53.630;55.972;2023-06-22T04:43:01;99808.03;;;20.76;34.83
60087;BME280;45960;53.630;55.972;2023-06-22T04:44:03;99811.53;;;20.85;34.73
60087;BME280;45960;53.630;55.972;2023-06-22T04:45:06;99810.47;;;20.94;35.02
60087;BME280;45960;53.630;55.972;2023-06-22T04:46:07;99810.72;;;21.07;34.88
60087;BME280;45960;53.630;55.972;2023-06-22T04:47:08;99802.53;;;21.15;34.86
60087;BME280;45960;53.630;55.972;2023-06-22T04:48:09;99813.28;;;21.32;34.75
60087;BME280;45960;53.630;55.972;2023-06-22T04:49:10;99815.59;;;21.43;34.69
60087;BME280;45960;53.630;55.972;2023-06-22T04:50:12;99815.72;;;21.50;34.45
60087;BME280;45960;53.630;55.972;2023-06-22T04:51:13;99811.78;;;21.52;34.27
60087;BME280;45960;53.630;55.972;2023-06-22T04:52:15;99817.22;;;21.52;34.20
60087;BME280;45960;53.630;55.972;2023-06-22T04:53:18;99820.69;;;21.46;34.35
60087;BME280;45960;53.630;55.972;2023-06-22T04:54:19;99810.88;;;21.37;34.28
60087;BME280;45960;53.630;55.972;2023-06-22T04:55:20;99817.38;;;21.28;34.28
60087;BME280;45960;53.630;55.972;2023-06-22T04:56:22;99815.06;;;21.16;34.48
60087;BME280;45960;53.630;55.972;2023-06-22T04:57:28;99814.81;;;21.03;34.46
60087;BME280;45960;53.630;55.972;2023-06-22T04:58:33;99821.69;;;20.91;34.78
60087;BME280;45960;53.630;55.972;2023-06-22T04:59:35;99821.03;;;20.81;35.30
60087;BME280;45960;53.630;55.972;2023-06-22T05:00:36;99811.25;;;20.71;35.40
60087;BME280;45960;53.630;55.972;2023-06-22T05:01:37;99817.75;;;20.62;35.52
60087;BME280;45960;53.630;55.972;2023-06-22T05:02:41;99813.38;;;20.53;35.61
60087;BME280;45960;53.630;55.972;2023-06-22T05:03:42;99820.13;;;20.49;35.39
60087;BME280;45960;53.630;55.972;2023-06-22T05:04:44;99814.38;;;20.44;35.47
60087;BME280;45960;53.630;55.972;2023-06-22T05:05:45;99812.03;;;20.41;35.56
60087;BME280;45960;53.630;55.972;2023-06-22T05:06:47;99817.09;;;20.44;35.76
60087;BME280;45960;53.630;55.972;2023-06-22T05:07:50;99823.69;;;20.49;35.88
60087;BME280;45960;53.630;55.972;2023-06-22T05:08:54;99822.19;;;20.55;35.69
60087;BME280;45960;53.630;55.972;2023-06-22T05:09:58;99827.25;;;20.58;35.50
60087;BME280;45960;53.630;55.972;2023-06-22T05:10:59;99822.69;;;20.59;34.93
60087;BME280;45960;53.630;55.972;2023-06-22T05:12:01;99826.63;;;20.40;34.81
60087;BME280;45960;53.630;55.972;2023-06-22T05:13:03;99820.88;;;20.34;35.06
60087;BME280;45960;53.630;55.972;2023-06-22T05:14:04;99817.66;;;20.39;35.29
60087;BME280;45960;53.630;55.972;2023-06-22T05:15:06;99818.47;;;20.48;35.06
60087;BME280;45960;53.630;55.972;2023-06-22T05:16:08;99823.19;;;20.62;35.19
60087;BME280;45960;53.630;55.972;2023-06-22T05:17:09;99818.19;;;20.74;34.83
60087;BME280;45960;53.630;55.972;2023-06-22T05:18:14;99828.47;;;20.95;34.86
60087;BME280;45960;53.630;55.972;2023-06-22T05:19:15;99815.78;;;21.10;34.65
60087;BME280;45960;53.630;55.972;2023-06-22T05:20:16;99821.13;;;21.27;34.22
60087;BME280;45960;53.630;55.972;2023-06-22T05:21:21;99822.72;;;21.44;34.08
60087;BME280;45960;53.630;55.972;2023-06-22T05:22:22;99815.19;;;21.54;33.73
60087;BME280;45960;53.630;55.972;2023-06-22T05:23:23;99818.97;;;21.68;33.68
60087;BME280;45960;53.630;55.972;2023-06-22T05:24:24;99817.84;;;21.77;32.92
60087;BME280;45960;53.630;55.972;2023-06-22T05:25:25;99817.66;;;21.79;32.60
60087;BME280;45960;53.630;55.972;2023-06-22T05:26:31;99815.81;;;21.79;32.28
60087;BME280;45960;53.630;55.972;2023-06-22T05:27:33;99817.38;;;21.74;32.19
60087;BME280;45960;53.630;55.972;2023-06-22T05:28:34;99823.44;;;21.61;32.21
60087;BME280;45960;53.630;55.972;2023-06-22T05:29:37;99814.50;;;21.52;32.16
60087;BME280;45960;53.630;55.972;2023-06-22T05:30:38;99826.56;;;21.27;32.01
60087;BME280;45960;53.630;55.972;2023-06-22T05:31:39;99823.31;;;21.00;32.21
60087;BME280;45960;53.630;55.972;2023-06-22T05:32:41;99815.00;;;20.70;32.64
60087;BME280;45960;53.630;55.972;2023-06-22T05:33:43;99826.56;;;20.64;32.94